Terminal Aerodrome Forecast
Issued by NWS Buffalo, NY

Home | Current Version | Previous Version | Text Only | Print | Product List | Glossary On
Versions: 1 2 3 4 5 6 7 8 9 10 11 12 13 14 15 16 17 18 19 20 21 22 23 24 25
000
FTUS41 KBUF 200300 AAC
TAFROC
TAF AMD
KROC 200300Z 2003/2024 16003KT 6SM -DZ BR OVC008
     FM200900 12004KT P6SM BKN012
     FM201400 13006KT P6SM BKN025
     FM201700 13006KT P6SM BKN012
     FM202000 14006KT P6SM VCSH OVC012
     FM202200 14006KT 6SM -RA OVC015=

USA.gov is the U.S. government's official web portal to all federal, state and local government web resources and services.